Bobville, Texas
Current Conditions -  °F | °C
As of 2:53 PM on Sunday 21 Dec 2014 (Local Time) from KCXO Reporting Station
Overcast Overcast  
Wind Chill: 58°   Ceiling: 2700
Heat Index: 58°   Visibility: 10mi
Dew Point: 48°   Wind: 6mph
Humidity: 70%   Direction: 210°SSW
Pressure: 29.98"   Gusts: NA
Location:  30.3479°N, 95.7825°W
Report Text: KCXO 212053Z 21005KT 10SM OVC027 14/09 A2998 RMK AO2 SLP149 T01440089 56038
Loading
Personal Weather Stations






























Interactive Weather Map New forecast layout! Learn more

10-Day Weather Forecast

Advertisements
Track Severe Weather on mobile